Time;durP1;ratioP1;P1;durP2;ratioP2;P2;SDS_P1;SDS_P2;PMS_P1;PMS_P2;Temp;Humidity;BMP_temperature;BMP_pressure;BME280_temperature;BME280_humidity;BME280_pressure;Samples;Min_cycle;Max_cycle;Signal;HPM_P1;HPM_P2
2023/06/12 00:00:05;;;;;;;6.28;3.17;;;22.60;97.10;;;;;;5036206;28;20123;-70
2023/06/12 00:02:31;;;;;;;3.80;3.03;;;22.00;99.50;;;;;;5036225;28;20080;-70
2023/06/12 00:04:57;;;;;;;7.68;3.38;;;21.80;99.90;;;;;;5035518;28;20041;-71
2023/06/12 00:07:25;;;;;;;4.70;3.50;;;21.90;99.30;;;;;;5035897;28;20489;-70
2023/06/12 00:09:51;;;;;;;6.15;2.90;;;22.00;98.50;;;;;;5035917;28;20393;-70
2023/06/12 00:12:17;;;;;;;6.60;3.10;;;22.10;98.00;;;;;;5035964;28;20051;-70
2023/06/12 00:14:43;;;;;;;7.22;2.90;;;21.90;98.00;;;;;;5035795;28;20048;-70
2023/06/12 00:17:08;;;;;;;4.45;2.58;;;21.90;97.40;;;;;;5035463;28;20112;-69
2023/06/12 00:19:34;;;;;;;6.63;3.20;;;22.10;96.90;;;;;;5019111;28;20056;-70
2023/06/12 00:22:00;;;;;;;5.40;2.97;;;21.80;96.80;;;;;;5035936;28;20033;-70
2023/06/12 00:24:25;;;;;;;7.70;2.95;;;21.90;97.00;;;;;;5035703;28;20045;-70
2023/06/12 00:26:51;;;;;;;4.88;2.65;;;21.80;97.20;;;;;;5035351;28;20063;-69
2023/06/12 00:29:17;;;;;;;7.45;2.80;;;21.80;97.20;;;;;;5035298;28;20132;-70
2023/06/12 00:31:43;;;;;;;5.05;2.88;;;21.60;97.30;;;;;;5035620;28;20051;-70
2023/06/12 00:34:09;;;;;;;5.60;3.17;;;21.80;97.60;;;;;;5035871;28;20041;-69
2023/06/12 00:36:35;;;;;;;4.05;2.60;;;;;;;;;;5018661;28;20037;-69
2023/06/12 00:39:00;;;;;;;6.03;2.97;;;21.60;99.90;;;;;;5036048;28;20527;-69
2023/06/12 00:41:27;;;;;;;7.32;2.78;;;;;;;;;;5036349;28;20037;-69
2023/06/12 00:43:53;;;;;;;6.97;2.97;;;;;;;;;;5035628;28;20045;-70
2023/06/12 00:46:19;;;;;;;4.53;3.13;;;21.40;96.90;;;;;;5034930;28;20095;-70
2023/06/12 00:48:45;;;;;;;5.40;2.90;;;21.40;97.30;;;;;;5035045;28;20045;-70
2023/06/12 00:51:11;;;;;;;5.80;2.90;;;21.40;97.20;;;;;;5035163;28;20033;-70
2023/06/12 00:53:36;;;;;;;3.35;2.58;;;21.40;97.30;;;;;;5035098;28;20037;-69
2023/06/12 00:56:02;;;;;;;10.48;3.28;;;21.40;97.50;;;;;;5034597;28;20039;-70
2023/06/12 00:58:28;;;;;;;4.97;2.55;;;21.40;97.60;;;;;;5034790;28;20397;-70
2023/06/12 01:00:56;;;;;;;10.15;3.13;;;21.20;97.80;;;;;;5035058;28;20098;-69
2023/06/12 01:03:24;;;;;;;7.15;2.90;;;21.20;97.50;;;;;;5034957;28;20071;-70
2023/06/12 01:05:51;;;;;;;5.22;2.80;;;21.10;97.80;;;;;;5034518;28;20052;-70
2023/06/12 01:08:41;;;;;;;6.13;2.67;;;20.90;98.00;;;;;;5052475;28;20102;-69
2023/06/12 01:11:12;;;;;;;7.75;3.55;;;21.10;98.10;;;;;;5034771;28;20045;-69
2023/06/12 01:13:38;;;;;;;5.20;2.58;;;21.20;98.30;;;;;;5034749;28;20583;-70
2023/06/12 01:16:04;;;;;;;5.70;2.70;;;21.10;98.20;;;;;;5034292;28;20052;-70
2023/06/12 01:18:32;;;;;;;5.57;2.70;;;20.90;98.30;;;;;;5034480;28;20036;-69
2023/06/12 01:20:58;;;;;;;6.43;3.10;;;20.90;98.60;;;;;;5034681;28;20045;-69
2023/06/12 01:23:39;;;;;;;6.50;3.10;;;21.10;98.90;;;;;;5052432;28;20068;-68
2023/06/12 01:26:08;;;;;;;6.18;2.70;;;;;;;;;;5034197;28;20044;-69
2023/06/12 01:29:04;;;;;;;5.18;2.53;;;20.90;97.70;;;;;;5017994;28;20049;-69
2023/06/12 01:31:56;;;;;;;8.93;2.78;;;20.70;97.80;;;;;;5034510;28;20045;-70
2023/06/12 01:34:29;;;;;;;4.95;2.72;;;20.70;98.30;;;;;;5034790;28;20435;-69
2023/06/12 01:37:33;;;;;;;6.13;3.15;;;21.30;98.30;;;;;;5034178;28;20059;-70
2023/06/12 01:40:03;;;;;;;6.05;2.60;;;20.60;97.80;;;;;;4969119;28;20068;-69
2023/06/12 01:42:30;;;;;;;6.88;2.92;;;20.50;98.30;;;;;;5034435;28;20044;-69
2023/06/12 01:44:55;;;;;;;7.80;2.72;;;20.50;98.40;;;;;;5034038;28;20396;-70
2023/06/12 01:47:21;;;;;;;5.63;2.72;;;20.20;98.40;;;;;;5017840;28;20513;-69
2023/06/12 01:49:48;;;;;;;6.72;3.28;;;20.40;98.40;;;;;;5033651;28;20037;-70
2023/06/12 01:52:13;;;;;;;8.25;2.67;;;20.40;98.60;;;;;;5017521;28;20040;-69
2023/06/12 01:54:40;;;;;;;6.22;2.83;;;20.10;98.70;;;;;;5034329;28;20037;-69
2023/06/12 01:57:06;;;;;;;6.18;3.35;;;20.80;98.90;;;;;;5033671;28;20052;-69
2023/06/12 01:59:32;;;;;;;6.70;2.90;;;20.00;98.80;;;;;;5034032;28;20049;-69
2023/06/12 02:01:58;;;;;;;6.38;2.75;;;20.20;99.10;;;;;;5034092;28;20054;-69
2023/06/12 02:04:23;;;;;;;5.35;2.42;;;20.00;99.20;;;;;;5033916;28;20493;-69
2023/06/12 02:06:49;;;;;;;6.25;2.72;;;20.10;99.20;;;;;;5033651;28;20029;-69
2023/06/12 02:09:15;;;;;;;7.50;2.92;;;20.20;99.20;;;;;;5033468;28;20114;-69
2023/06/12 02:11:42;;;;;;;3.90;3.03;;;19.90;99.20;;;;;;5033885;28;20072;-70
2023/06/12 02:14:07;;;;;;;11.30;3.55;;;19.80;99.40;;;;;;5017335;28;20041;-70
2023/06/12 02:16:33;;;;;;;8.43;2.90;;;21.40;99.90;;;;;;5032838;28;20043;-70
2023/06/12 02:18:58;;;;;;;8.95;2.83;;;20.00;99.70;;;;;;5034129;28;20500;-70
2023/06/12 02:21:24;;;;;;;6.10;3.15;;;20.80;99.80;;;;;;5033997;28;20132;-70
2023/06/12 02:23:50;;;;;;;4.13;2.47;;;19.80;99.70;;;;;;5034003;28;20069;-69
2023/06/12 02:26:16;;;;;;;5.13;3.50;;;21.30;99.90;;;;;;5033495;28;20140;-70
2023/06/12 02:28:44;;;;;;;6.68;3.35;;;19.70;99.60;;;;;;5033397;28;20041;-69
2023/06/12 02:31:11;;;;;;;5.00;2.70;;;19.60;99.40;;;;;;5033563;28;20563;-69
2023/06/12 02:33:38;;;;;;;5.93;3.42;;;19.60;99.90;;;;;;5035823;28;20408;-70
2023/06/12 02:36:07;;;;;;;8.88;3.95;;;20.40;99.90;;;;;;5033659;28;20049;-69
2023/06/12 02:38:33;;;;;;;7.20;3.47;;;19.50;99.90;;;;;;5033046;28;20098;-69
2023/06/12 02:40:59;;;;;;;6.80;3.47;;;19.40;99.90;;;;;;5033661;28;20068;-69
2023/06/12 02:43:24;;;;;;;4.30;3.10;;;20.20;99.90;;;;;;5033715;28;20489;-69
2023/06/12 02:45:50;;;;;;;5.35;3.08;;;19.40;99.90;;;;;;5032974;28;20044;-69
2023/06/12 02:48:19;;;;;;;10.13;3.47;;;19.10;99.90;;;;;;5033730;28;20039;-68
2023/06/12 02:50:44;;;;;;;5.13;2.70;;;19.40;99.90;;;;;;5033363;28;20037;-71
2023/06/12 02:53:10;;;;;;;12.57;3.75;;;19.40;99.90;;;;;;5033342;28;20040;-69
2023/06/12 02:55:39;;;;;;;5.90;3.40;;;20.30;99.90;;;;;;5032203;28;20159;-69
2023/06/12 02:58:06;;;;;;;5.72;2.90;;;19.30;99.90;;;;;;5033260;28;20116;-69
2023/06/12 03:00:31;;;;;;;5.95;2.90;;;19.10;99.90;;;;;;5033537;28;20126;-69
2023/06/12 03:02:57;;;;;;;9.00;2.75;;;19.20;99.90;;;;;;5033620;28;20045;-70
2023/06/12 03:05:25;;;;;;;9.13;3.35;;;19.70;99.90;;;;;;5017111;28;20048;-70
2023/06/12 03:07:52;;;;;;;5.85;2.60;;;19.90;99.90;;;;;;5033538;28;20531;-69
2023/06/12 03:10:18;;;;;;;6.10;3.13;;;20.00;99.90;;;;;;5033230;28;20049;-69
2023/06/12 03:12:43;;;;;;;11.52;3.78;;;20.00;99.90;;;;;;5033487;28;20063;-70
2023/06/12 03:15:09;;;;;;;7.22;2.97;;;19.10;99.90;;;;;;5032939;28;20090;-69
2023/06/12 03:17:35;;;;;;;5.55;3.30;;;19.10;99.90;;;;;;5033008;28;20520;-68
2023/06/12 03:20:04;;;;;;;5.22;2.75;;;18.60;99.90;;;;;;5033131;28;20045;-69
2023/06/12 03:22:29;;;;;;;5.93;2.63;;;20.00;99.90;;;;;;5017115;28;20400;-69
2023/06/12 03:24:55;;;;;;;4.90;2.40;;;20.40;99.90;;;;;;5032891;28;20041;-69
2023/06/12 03:27:22;;;;;;;4.72;2.60;;;19.40;99.90;;;;;;5049993;28;20084;-69
2023/06/12 03:29:47;;;;;;;7.70;3.45;;;18.90;99.90;;;;;;5036592;28;20094;-69
2023/06/12 03:32:13;;;;;;;6.38;3.40;;;19.00;99.90;;;;;;5037053;28;20045;-69
2023/06/12 03:34:39;;;;;;;7.63;3.08;;;20.20;99.90;;;;;;5036579;28;20513;-69
2023/06/12 03:37:05;;;;;;;7.65;3.08;;;18.90;99.90;;;;;;5036564;28;20036;-69
2023/06/12 03:39:30;;;;;;;5.70;2.72;;;18.70;99.90;;;;;;5036775;28;20060;-69
2023/06/12 03:41:57;;;;;;;4.93;2.83;;;19.20;99.90;;;;;;5036627;28;20489;-69
2023/06/12 03:44:23;;;;;;;7.53;3.38;;;18.80;99.90;;;;;;5036805;28;20037;-69
2023/06/12 03:46:48;;;;;;;5.25;3.10;;;18.80;99.90;;;;;;5036334;28;20040;-69
2023/06/12 03:49:14;;;;;;;5.45;2.97;;;19.30;99.90;;;;;;5036125;28;20037;-69
2023/06/12 03:51:40;;;;;;;7.50;3.40;;;19.40;99.90;;;;;;5036358;28;20094;-69
2023/06/12 03:54:06;;;;;;;6.53;3.35;;;19.10;99.90;;;;;;5036488;28;20524;-69
2023/06/12 03:56:32;;;;;;;7.85;3.15;;;18.80;99.90;;;;;;5019599;28;20029;-70
2023/06/12 03:58:58;;;;;;;5.75;3.33;;;19.00;99.90;;;;;;5019820;28;20517;-69
2023/06/12 04:01:24;;;;;;;8.30;3.08;;;18.80;99.90;;;;;;5036223;28;20112;-69
2023/06/12 04:03:49;;;;;;;9.43;3.67;;;18.80;99.90;;;;;;5036093;28;20087;-69
2023/06/12 04:06:15;;;;;;;7.82;3.10;;;20.00;99.90;;;;;;5035772;28;20041;-69
2023/06/12 04:08:41;;;;;;;7.88;3.80;;;19.60;99.90;;;;;;5019196;28;20037;-69
2023/06/12 04:11:09;;;;;;;5.90;3.78;;;18.70;99.90;;;;;;5035922;28;20107;-69
2023/06/12 04:13:35;;;;;;;5.15;3.13;;;18.90;99.90;;;;;;5053897;28;20072;-69
2023/06/12 04:16:03;;;;;;;8.00;3.95;;;18.90;99.90;;;;;;5035559;28;20075;-69
2023/06/12 04:18:28;;;;;;;6.38;3.50;;;18.60;99.90;;;;;;5035855;28;20064;-69
2023/06/12 04:20:55;;;;;;;7.18;3.70;;;18.80;99.90;;;;;;5036189;28;20409;-69
2023/06/12 04:23:20;;;;;;;8.70;4.70;;;18.60;99.90;;;;;;5053771;28;20045;-69
2023/06/12 04:25:50;;;;;;;7.25;3.85;;;18.80;99.90;;;;;;5036106;28;20040;-69
2023/06/12 04:28:16;;;;;;;9.20;3.33;;;18.80;99.90;;;;;;5036566;28;20409;-69
2023/06/12 04:30:44;;;;;;;8.57;3.42;;;19.70;99.90;;;;;;5035788;28;20040;-69
2023/06/12 04:33:11;;;;;;;7.18;3.78;;;18.70;99.90;;;;;;5035772;28;20081;-70
2023/06/12 04:35:37;;;;;;;9.55;3.38;;;19.10;99.90;;;;;;5035473;28;20099;-70
2023/06/12 04:38:05;;;;;;;7.95;3.40;;;18.70;99.90;;;;;;5035898;28;20477;-69
2023/06/12 04:40:36;;;;;;;5.15;2.92;;;19.00;99.90;;;;;;5035100;28;20091;-69
2023/06/12 04:43:05;;;;;;;7.22;2.90;;;18.80;99.90;;;;;;5035464;28;20041;-69
2023/06/12 04:45:32;;;;;;;5.53;3.83;;;18.90;99.90;;;;;;5035209;28;20041;-69
2023/06/12 04:47:58;;;;;;;6.18;2.95;;;18.80;99.90;;;;;;5035264;28;20049;-69
2023/06/12 04:50:25;;;;;;;6.15;3.13;;;19.20;99.90;;;;;;5035299;28;20037;-69
2023/06/12 04:52:52;;;;;;;6.95;3.30;;;18.90;99.90;;;;;;5034369;28;20033;-69
2023/06/12 04:55:22;;;;;;;7.25;3.55;;;18.90;99.90;;;;;;5034616;28;20188;-69
2023/06/12 04:57:52;;;;;;;12.50;4.30;;;18.80;99.90;;;;;;5034947;28;20041;-69
2023/06/12 05:00:19;;;;;;;10.95;4.03;;;19.00;99.90;;;;;;5034964;28;20124;-69
2023/06/12 05:02:46;;;;;;;7.88;3.13;;;18.90;99.90;;;;;;5034960;28;20041;-69
2023/06/12 05:05:12;;;;;;;5.60;3.17;;;19.00;99.90;;;;;;5034659;28;20048;-69
2023/06/12 05:07:37;;;;;;;8.15;3.42;;;19.00;99.90;;;;;;5034514;28;20120;-68
2023/06/12 05:10:04;;;;;;;7.20;3.42;;;19.10;99.90;;;;;;5018594;28;20067;-69
2023/06/12 05:12:29;;;;;;;6.43;3.58;;;19.20;99.90;;;;;;5035096;28;20037;-69
2023/06/12 05:14:55;;;;;;;13.48;4.75;;;19.10;99.90;;;;;;5033968;28;20048;-69
2023/06/12 05:17:21;;;;;;;13.07;3.85;;;20.00;99.90;;;;;;5034752;28;20025;-68
2023/06/12 05:19:48;;;;;;;10.23;3.60;;;19.50;99.90;;;;;;5018402;28;20045;-69
2023/06/12 05:22:13;;;;;;;10.50;3.85;;;19.40;99.90;;;;;;5035323;28;20052;-69
2023/06/12 05:24:39;;;;;;;6.72;3.55;;;19.50;99.90;;;;;;5034848;28;20515;-69
2023/06/12 05:27:07;;;;;;;9.32;3.30;;;19.50;99.90;;;;;;5033717;28;20045;-69
2023/06/12 05:29:35;;;;;;;5.80;3.70;;;19.60;99.90;;;;;;5017688;28;20033;-69
2023/06/12 05:32:01;;;;;;;10.45;3.88;;;19.60;99.90;;;;;;5034403;28;20068;-69
2023/06/12 05:34:27;;;;;;;11.48;3.88;;;20.70;99.90;;;;;;5051974;28;20068;-68
2023/06/12 05:36:54;;;;;;;10.10;3.60;;;19.60;99.90;;;;;;5033911;28;20409;-69
2023/06/12 05:39:20;;;;;;;7.60;3.40;;;19.60;99.90;;;;;;5017632;28;20036;-69
2023/06/12 05:41:45;;;;;;;6.65;3.22;;;20.70;99.90;;;;;;5034297;28;20489;-69
2023/06/12 05:44:11;;;;;;;6.53;4.60;;;20.00;99.90;;;;;;5034514;28;20080;-69
2023/06/12 05:46:37;;;;;;;9.75;4.10;;;19.70;99.90;;;;;;5033058;28;20037;-69
2023/06/12 05:49:03;;;;;;;7.65;3.72;;;20.00;99.90;;;;;;5033321;28;20059;-69
2023/06/12 05:51:28;;;;;;;8.10;3.75;;;20.90;99.90;;;;;;5031779;28;20043;-69
2023/06/12 05:53:54;;;;;;;9.63;3.35;;;20.40;99.90;;;;;;5020471;28;20512;-68
2023/06/12 05:56:22;;;;;;;12.07;4.07;;;20.70;99.90;;;;;;5014978;28;20033;-68
2023/06/12 05:58:48;;;;;;;16.17;4.50;;;20.40;99.90;;;;;;5024618;28;20045;-69
2023/06/12 06:01:16;;;;;;;10.55;4.63;;;20.20;99.90;;;;;;5022174;28;20045;-67
2023/06/12 06:03:45;;;;;;;9.43;3.85;;;20.50;99.90;;;;;;5025764;28;20120;-69
2023/06/12 06:06:13;;;;;;;8.07;4.45;;;20.70;99.90;;;;;;5010421;28;20041;-69
2023/06/12 06:08:38;;;;;;;19.02;4.47;;;21.80;99.90;;;;;;5016057;28;20042;-69
2023/06/12 06:11:04;;;;;;;8.32;4.78;;;20.30;99.90;;;;;;5018065;28;20052;-68
2023/06/12 06:13:31;;;;;;;8.27;4.20;;;20.50;99.90;;;;;;5009740;28;20097;-68
2023/06/12 06:15:56;;;;;;;9.93;4.50;;;20.50;99.90;;;;;;5023363;28;20043;-68
2023/06/12 06:18:22;;;;;;;8.07;4.30;;;20.60;99.90;;;;;;5024409;28;20572;-69
2023/06/12 06:20:48;;;;;;;11.35;4.90;;;20.90;99.90;;;;;;5022498;28;20045;-68
2023/06/12 06:23:14;;;;;;;8.15;4.38;;;20.90;99.90;;;;;;5018134;28;20116;-67
2023/06/12 06:25:40;;;;;;;6.82;4.03;;;21.40;99.90;;;;;;5022306;28;20045;-68
2023/06/12 06:28:06;;;;;;;8.10;3.40;;;22.20;99.90;;;;;;5028079;28;20087;-69
2023/06/12 06:30:31;;;;;;;8.30;4.32;;;21.20;99.90;;;;;;5029327;28;20103;-66
2023/06/12 06:32:57;;;;;;;11.63;3.95;;;21.20;99.90;;;;;;5028249;28;20068;-67
2023/06/12 06:36:30;;;;;;;7.35;4.55;;;21.30;99.90;;;;;;5120220;27;1254634;-71
2023/06/12 06:38:56;;;;;;;7.45;3.80;;;21.30;99.90;;;;;;5111257;28;20154;-73
2023/06/12 06:41:21;;;;;;;5.72;4.25;;;21.30;99.90;;;;;;5107780;28;20573;-74
2023/06/12 06:43:47;;;;;;;12.18;3.90;;;20.90;99.90;;;;;;5113625;28;20613;-73
2023/06/12 06:46:13;;;;;;;7.75;4.47;;;21.90;99.90;;;;;;5093035;28;20054;-74
2023/06/12 06:48:38;;;;;;;8.30;3.80;;;22.00;99.90;;;;;;5124609;28;20035;-70
2023/06/12 06:51:04;;;;;;;9.57;5.05;;;23.20;99.90;;;;;;5114794;28;20514;-73
2023/06/12 06:53:31;;;;;;;10.82;4.43;;;21.90;99.90;;;;;;5123330;28;20402;-73
2023/06/12 06:55:57;;;;;;;9.32;3.90;;;22.20;99.90;;;;;;5110193;28;20487;-73
2023/06/12 06:58:22;;;;;;;8.73;4.07;;;22.10;99.90;;;;;;5106209;28;20080;-73
2023/06/12 07:00:49;;;;;;;7.82;3.78;;;22.10;99.90;;;;;;5124123;28;20080;-73
2023/06/12 07:03:15;;;;;;;7.32;5.57;;;22.90;99.90;;;;;;5122121;28;20157;-71
2023/06/12 07:05:41;;;;;;;10.13;4.65;;;23.20;99.90;;;;;;5121439;28;20438;-69
2023/06/12 07:08:07;;;;;;;10.45;4.53;;;22.10;99.90;;;;;;5122321;28;20073;-74
2023/06/12 07:10:33;;;;;;;13.23;4.63;;;22.30;99.90;;;;;;5122226;28;20039;-73
2023/06/12 07:12:58;;;;;;;9.38;5.20;;;23.30;99.90;;;;;;5123201;28;20434;-72
2023/06/12 07:15:25;;;;;;;15.43;5.30;;;22.20;99.90;;;;;;5122273;28;20040;-74
2023/06/12 07:17:51;;;;;;;12.68;4.70;;;22.20;99.90;;;;;;5121918;27;20399;-74
2023/06/12 07:20:17;;;;;;;14.10;4.82;;;22.60;99.90;;;;;;5102936;28;20062;-71
2023/06/12 07:22:42;;;;;;;9.55;3.95;;;24.40;99.90;;;;;;5118882;28;20040;-74
2023/06/12 07:25:10;;;;;;;18.35;5.93;;;23.20;99.90;;;;;;5123056;28;20039;-71
2023/06/12 07:27:35;;;;;;;7.45;3.92;;;22.60;99.90;;;;;;5115474;27;20133;-72
2023/06/12 07:30:01;;;;;;;7.25;4.07;;;22.80;99.90;;;;;;5114873;28;20048;-72
2023/06/12 07:32:27;;;;;;;14.18;4.88;;;23.00;99.90;;;;;;5124230;28;20035;-73
2023/06/12 07:34:54;;;;;;;9.15;4.47;;;23.10;99.90;;;;;;5126366;28;20049;-72
2023/06/12 07:37:20;;;;;;;6.00;3.75;;;24.60;99.90;;;;;;5101906;28;20156;-73
2023/06/12 07:39:47;;;;;;;6.40;4.15;;;23.30;99.90;;;;;;5108895;28;20046;-73
2023/06/12 07:42:13;;;;;;;11.00;4.60;;;24.60;99.90;;;;;;5114945;28;20145;-72
2023/06/12 07:44:40;;;;;;;6.30;4.25;;;23.40;99.90;;;;;;5104812;28;20047;-72
2023/06/12 07:47:07;;;;;;;9.02;4.32;;;23.30;99.90;;;;;;5095000;28;20770;-73
2023/06/12 07:49:33;;;;;;;9.80;4.68;;;23.30;99.90;;;;;;5098368;28;20031;-72
2023/06/12 07:51:59;;;;;;;7.32;3.80;;;23.30;99.90;;;;;;5108940;28;20043;-72
2023/06/12 07:54:25;;;;;;;6.03;4.13;;;24.10;99.90;;;;;;5108150;28;20519;-72
2023/06/12 07:56:53;;;;;;;12.65;4.28;;;23.70;99.90;;;;;;5106811;28;20110;-72
2023/06/12 07:59:20;;;;;;;11.50;4.85;;;23.90;99.90;;;;;;5106729;28;20032;-72
2023/06/12 08:01:46;;;;;;;14.38;4.90;;;23.80;99.90;;;;;;5106187;28;20040;-72
2023/06/12 08:04:12;;;;;;;8.13;4.07;;;24.00;99.90;;;;;;5109088;28;20040;-72
2023/06/12 08:06:42;;;;;;;7.05;4.07;;;25.50;99.90;;;;;;5108384;28;20039;-72
2023/06/12 08:09:11;;;;;;;7.28;3.13;;;24.10;99.90;;;;;;5107695;28;20031;-73
2023/06/12 08:11:37;;;;;;;6.43;4.07;;;24.20;99.90;;;;;;5095861;28;20040;-72
2023/06/12 08:14:03;;;;;;;9.13;4.22;;;24.10;99.90;;;;;;5085078;28;20495;-72
2023/06/12 08:16:32;;;;;;;6.28;3.72;;;24.50;99.90;;;;;;5112213;28;20084;-72
2023/06/12 08:18:58;;;;;;;8.48;3.20;;;24.40;99.90;;;;;;5111891;28;20032;-71
2023/06/12 08:21:25;;;;;;;8.93;3.40;;;24.30;99.30;;;;;;5112303;28;20392;-72
2023/06/12 08:23:51;;;;;;;8.93;4.05;;;25.40;99.60;;;;;;5112046;28;20561;-71
2023/06/12 08:26:17;;;;;;;5.68;3.42;;;24.90;99.40;;;;;;5110896;28;20043;-72
2023/06/12 08:28:43;;;;;;;9.27;3.90;;;24.70;98.80;;;;;;5111743;28;20410;-72
2023/06/12 08:31:09;;;;;;;6.68;3.95;;;24.80;99.00;;;;;;5112935;28;20115;-72
2023/06/12 08:33:34;;;;;;;7.90;4.00;;;25.70;98.50;;;;;;5110787;28;20043;-72
2023/06/12 08:36:00;;;;;;;9.27;3.53;;;25.00;99.00;;;;;;5112400;28;20134;-72
2023/06/12 08:38:26;;;;;;;7.95;3.72;;;25.00;99.00;;;;;;5111988;28;20036;-72
2023/06/12 08:40:54;;;;;;;6.90;3.40;;;25.10;97.60;;;;;;5112360;28;20043;-73
2023/06/12 08:43:20;;;;;;;6.15;3.63;;;25.20;97.20;;;;;;5111098;28;20027;-73
2023/06/12 08:45:49;;;;;;;8.00;4.10;;;25.10;97.30;;;;;;5110200;28;20088;-70
2023/06/12 08:48:20;;;;;;;5.60;3.53;;;25.30;98.00;;;;;;5101171;28;20096;-75
2023/06/12 08:50:47;;;;;;;9.65;4.68;;;26.30;98.60;;;;;;5101470;28;20039;-72
2023/06/12 08:53:14;;;;;;;9.02;3.78;;;26.30;98.10;;;;;;5112042;28;20549;-73
2023/06/12 08:55:39;;;;;;;5.55;3.38;;;25.50;97.50;;;;;;5127272;27;20582;-73
2023/06/12 08:58:07;;;;;;;6.78;3.60;;;26.00;97.90;;;;;;5106031;28;20115;-73
2023/06/12 09:00:33;;;;;;;6.47;3.78;;;25.50;97.00;;;;;;5104001;28;20177;-72
2023/06/12 09:03:00;;;;;;;8.32;3.42;;;23.80;96.20;;;;;;5088479;28;20036;-73
2023/06/12 09:05:33;;;;;;;6.00;3.28;;;25.80;95.90;;;;;;5099551;28;20043;-72
2023/06/12 09:08:05;;;;;;;6.07;3.22;;;25.70;96.30;;;;;;5110340;28;20119;-72
2023/06/12 09:10:32;;;;;;;10.07;3.83;;;25.90;95.70;;;;;;5111459;28;20040;-73
2023/06/12 09:12:58;;;;;;;11.77;4.72;;;26.80;96.00;;;;;;5094722;28;20487;-73
2023/06/12 09:15:24;;;;;;;5.53;4.28;;;25.90;95.90;;;;;;5102560;28;20089;-73
2023/06/12 09:17:51;;;;;;;9.40;4.20;;;26.10;95.60;;;;;;5074201;28;20036;-73
2023/06/12 09:20:28;;;;;;;8.52;3.78;;;26.40;95.40;;;;;;5091538;28;20058;-72
2023/06/12 09:22:55;;;;;;;4.32;3.63;;;26.10;95.70;;;;;;5111193;28;20439;-72
2023/06/12 09:25:25;;;;;;;10.07;4.43;;;26.20;95.70;;;;;;5111224;28;20048;-71
2023/06/12 09:27:51;;;;;;;10.30;3.83;;;26.00;95.40;;;;;;5109305;28;20039;-72
2023/06/12 09:30:16;;;;;;;8.02;3.80;;;27.00;95.80;;;;;;5091561;28;20127;-72
2023/06/12 09:32:44;;;;;;;9.13;3.67;;;26.10;95.40;;;;;;5090408;28;20556;-72
2023/06/12 09:35:11;;;;;;;13.98;4.38;;;26.40;95.80;;;;;;5091284;28;20051;-72
2023/06/12 09:37:38;;;;;;;5.72;3.95;;;26.50;96.40;;;;;;5098474;28;20042;-72
2023/06/12 09:40:14;;;;;;;10.80;4.28;;;26.60;96.20;;;;;;5100517;28;20100;-72
2023/06/12 09:42:42;;;;;;;7.05;4.78;;;26.50;96.20;;;;;;5110522;28;20040;-70
2023/06/12 09:45:13;;;;;;;8.25;3.65;;;26.60;96.00;;;;;;5109059;28;20048;-70
2023/06/12 09:47:47;;;;;;;8.00;4.28;;;26.50;95.90;;;;;;5108317;28;20043;-70
2023/06/12 09:50:15;;;;;;;6.07;3.70;;;26.80;96.70;;;;;;5110915;28;20035;-71
2023/06/12 09:52:45;;;;;;;6.47;4.90;;;27.00;96.00;;;;;;5109868;28;20047;-70
2023/06/12 09:55:15;;;;;;;12.38;5.25;;;26.90;96.10;;;;;;5110221;28;20568;-70
2023/06/12 09:57:53;;;;;;;6.38;3.88;;;27.70;96.80;;;;;;5110134;28;20036;-70
2023/06/12 10:00:19;;;;;;;7.45;3.70;;;27.20;96.20;;;;;;5109954;28;20124;-70
2023/06/12 10:02:56;;;;;;;6.90;3.65;;;27.20;95.80;;;;;;5093832;28;20502;-70
2023/06/12 10:05:28;;;;;;;7.10;3.28;;;27.20;95.60;;;;;;5109082;28;20043;-71
2023/06/12 10:07:59;;;;;;;7.55;3.97;;;27.60;95.40;;;;;;5100005;28;20656;-71
2023/06/12 10:10:26;;;;;;;6.60;3.92;;;27.50;94.40;;;;;;5091009;28;20525;-71
2023/06/12 10:12:53;;;;;;;8.00;3.90;;;27.50;94.10;;;;;;5092150;28;20096;-71
2023/06/12 10:15:20;;;;;;;9.23;3.97;;;27.40;94.40;;;;;;5109720;28;20032;-70
2023/06/12 10:17:47;;;;;;;6.68;3.20;;;27.50;95.00;;;;;;5097618;28;20050;-67
2023/06/12 10:20:13;;;;;;;5.65;2.78;;;27.80;93.80;;;;;;5096485;28;20039;-67
2023/06/12 10:22:39;;;;;;;6.05;2.72;;;27.60;91.40;;;;;;5103321;28;20040;-70
2023/06/12 10:25:08;;;;;;;4.95;2.90;;;27.90;92.10;;;;;;5101301;28;20127;-70
2023/06/12 10:27:36;;;;;;;4.78;2.83;;;27.80;91.50;;;;;;5096485;28;20055;-70
2023/06/12 10:30:03;;;;;;;5.70;3.42;;;27.90;90.70;;;;;;5106430;28;20075;-71
2023/06/12 10:32:32;;;;;;;6.00;3.38;;;28.10;91.60;;;;;;5099252;28;20048;-70
2023/06/12 10:34:59;;;;;;;5.90;3.95;;;28.00;91.10;;;;;;5099162;28;20079;-71
2023/06/12 10:37:31;;;;;;;3.75;3.25;;;28.00;91.90;;;;;;5108360;28;20031;-71
2023/06/12 10:40:10;;;;;;;8.88;3.50;;;28.10;91.10;;;;;;5107552;28;20038;-70
2023/06/12 10:42:40;;;;;;;6.00;3.38;;;28.30;92.00;;;;;;5100352;28;20036;-70
2023/06/12 10:45:18;;;;;;;4.40;2.90;;;28.50;92.60;;;;;;5069791;28;20046;-70
2023/06/12 10:48:02;;;;;;;7.38;3.58;;;28.60;91.50;;;;;;5102836;28;20556;-71
2023/06/12 10:50:28;;;;;;;5.32;3.85;;;28.90;92.40;;;;;;5098449;28;20051;-71
2023/06/12 10:52:57;;;;;;;5.25;3.28;;;28.60;92.50;;;;;;5097016;28;20055;-71
2023/06/12 10:55:31;;;;;;;5.05;3.60;;;28.30;92.40;;;;;;5100140;28;20076;-72
2023/06/12 10:57:59;;;;;;;6.57;3.63;;;28.70;92.60;;;;;;5102188;28;20048;-71
2023/06/12 11:00:36;;;;;;;5.75;3.63;;;28.30;93.00;;;;;;5110959;28;20345;-71
2023/06/12 11:03:03;;;;;;;4.07;3.67;;;28.70;92.50;;;;;;5095377;28;20074;-69
2023/06/12 11:05:30;;;;;;;7.35;3.70;;;28.90;92.20;;;;;;5108752;28;20078;-71
2023/06/12 11:08:03;;;;;;;8.88;3.35;;;29.00;92.30;;;;;;5112042;28;20035;-71
2023/06/12 11:10:30;;;;;;;6.70;3.55;;;28.80;91.50;;;;;;5111706;28;20031;-71
2023/06/12 11:12:56;;;;;;;6.15;3.60;;;28.90;91.60;;;;;;5113018;28;20118;-71
2023/06/12 11:15:22;;;;;;;4.55;3.92;;;30.30;92.50;;;;;;5111956;28;20465;-71
2023/06/12 11:17:49;;;;;;;7.40;4.63;;;29.00;91.90;;;;;;5111550;28;20035;-71
2023/06/12 11:20:16;;;;;;;6.95;3.42;;;29.00;91.40;;;;;;5113063;28;20564;-71
2023/06/12 11:22:42;;;;;;;8.02;3.97;;;28.80;91.20;;;;;;5116371;28;20035;-71
2023/06/12 11:25:08;;;;;;;7.18;3.95;;;29.20;91.60;;;;;;5113900;28;20050;-71
2023/06/12 11:27:37;;;;;;;6.10;3.30;;;29.20;91.40;;;;;;5114856;28;20051;-71
2023/06/12 11:30:15;;;;;;;6.07;3.50;;;29.50;91.80;;;;;;5099597;28;20334;-71
2023/06/12 11:32:42;;;;;;;5.32;3.38;;;29.30;90.70;;;;;;5093179;28;20219;-71
2023/06/12 11:35:09;;;;;;;5.30;3.60;;;29.40;91.20;;;;;;5076241;28;20047;-69
2023/06/12 11:37:37;;;;;;;6.28;3.35;;;29.80;91.60;;;;;;5113631;28;20039;-71
2023/06/12 11:40:09;;;;;;;6.63;4.20;;;29.50;91.70;;;;;;5112770;28;20113;-71
2023/06/12 11:42:37;;;;;;;3.75;3.10;;;29.60;90.80;;;;;;5095155;28;20097;-72
2023/06/12 11:45:14;;;;;;;8.05;4.35;;;29.50;90.80;;;;;;5112907;28;20043;-71
2023/06/12 11:47:42;;;;;;;7.05;3.33;;;29.40;90.90;;;;;;5105290;28;20607;-71
2023/06/12 11:50:10;;;;;;;7.88;3.92;;;29.60;91.10;;;;;;5112413;28;20494;-71
2023/06/12 11:52:39;;;;;;;5.82;3.58;;;29.80;91.60;;;;;;5108895;28;20035;-71
2023/06/12 11:55:08;;;;;;;5.40;3.60;;;29.80;91.80;;;;;;5111951;28;20111;-71
2023/06/12 11:57:36;;;;;;;4.85;3.30;;;29.70;90.90;;;;;;5112580;28;20108;-71
2023/06/12 12:00:17;;;;;;;4.95;3.70;;;30.10;91.20;;;;;;5101232;28;20051;-71
2023/06/12 12:02:49;;;;;;;4.60;3.72;;;30.20;91.60;;;;;;5092607;28;20036;-71
2023/06/12 12:05:23;;;;;;;6.07;3.53;;;30.20;91.50;;;;;;5090955;28;20040;-71
2023/06/12 12:07:56;;;;;;;6.03;3.83;;;30.10;91.00;;;;;;5091682;28;20510;-71
2023/06/12 12:10:22;;;;;;;;;;;30.00;90.80;;;;;;5092560;28;20507;-71
2023/06/12 12:12:49;;;;;;;6.03;3.97;;;29.90;91.40;;;;;;5104413;28;20018;-71
2023/06/12 12:15:20;;;;;;;6.05;3.90;;;30.50;91.80;;;;;;5111197;28;20047;-71
2023/06/12 12:17:47;;;;;;;8.13;4.27;;;30.30;91.60;;;;;;5110112;28;20513;-71
2023/06/12 12:20:26;;;;;;;7.05;4.30;;;31.20;91.70;;;;;;5111943;28;20105;-71
2023/06/12 12:22:53;;;;;;;4.80;3.75;;;29.90;91.00;;;;;;5093894;28;20027;-71
2023/06/12 12:25:27;;;;;;;7.50;4.10;;;30.10;92.00;;;;;;5092514;28;20035;-71
2023/06/12 12:27:54;;;;;;;8.55;4.35;;;30.20;91.30;;;;;;5111545;28;20468;-71
2023/06/12 12:30:21;;;;;;;6.30;3.90;;;29.90;91.20;;;;;;5100055;28;20039;-71
2023/06/12 12:32:50;;;;;;;5.80;4.30;;;30.30;92.00;;;;;;5106082;28;20031;-72
2023/06/12 12:35:16;;;;;;;5.63;4.05;;;29.90;90.90;;;;;;5103876;28;20032;-70
2023/06/12 12:37:43;;;;;;;8.25;4.18;;;29.80;91.30;;;;;;5109374;28;20031;-72
2023/06/12 12:40:10;;;;;;;11.30;4.45;;;30.00;91.10;;;;;;5112036;28;20044;-71
2023/06/12 12:42:39;;;;;;;7.18;4.85;;;30.10;90.30;;;;;;5111603;28;20323;-70
2023/06/12 12:45:07;;;;;;;6.50;4.50;;;30.10;89.80;;;;;;5111401;28;20043;-71
2023/06/12 12:47:33;;;;;;;11.88;4.70;;;30.40;90.50;;;;;;5111297;28;20127;-71
2023/06/12 12:49:59;;;;;;;5.68;4.50;;;31.10;90.50;;;;;;5110527;28;20701;-71